Time;durP1;ratioP1;P1;durP2;ratioP2;P2;SDS_P1;SDS_P2;PMS_P1;PMS_P2;Temp;Humidity;BMP_temperature;BMP_pressure;BME280_temperature;BME280_humidity;BME280_pressure;Samples;Min_cycle;Max_cycle;Signal;HPM_P1;HPM_P2
2022/09/27 00:01:46;;;;;;;53.95;27.80;;;27.40;99.90;;;;;;5096089;28;20039;-73
2022/09/27 00:04:12;;;;;;;48.45;26.63;;;27.60;99.90;;;;;;5096081;28;20030;-70
2022/09/27 00:06:39;;;;;;;48.60;24.67;;;27.60;99.90;;;;;;5096017;28;20024;-72
2022/09/27 00:09:06;;;;;;;55.13;25.55;;;27.70;99.90;;;;;;5095883;28;20024;-70
2022/09/27 00:11:36;;;;;;;49.90;24.38;;;27.80;99.90;;;;;;5095893;28;20550;-71
2022/09/27 00:14:04;;;;;;;47.95;25.13;;;27.80;99.90;;;;;;5095876;28;20466;-71
2022/09/27 00:16:34;;;;;;;46.08;25.65;;;27.90;99.90;;;;;;5095649;28;20024;-71
2022/09/27 00:19:06;;;;;;;58.17;26.25;;;27.90;99.90;;;;;;5095899;28;20066;-71
2022/09/27 00:21:33;;;;;;;52.40;25.85;;;28.00;99.90;;;;;;5095642;28;20027;-72
2022/09/27 00:24:00;;;;;;;47.08;24.08;;;28.10;99.90;;;;;;5095507;28;20039;-72
2022/09/27 00:26:26;;;;;;;46.67;23.70;;;28.10;99.90;;;;;;5095489;28;20024;-71
2022/09/27 00:28:53;;;;;;;39.60;24.23;;;28.20;99.90;;;;;;5095535;28;20020;-70
2022/09/27 00:31:23;;;;;;;50.60;24.65;;;28.30;99.90;;;;;;5095302;28;20131;-70
2022/09/27 00:33:52;;;;;;;44.60;21.92;;;28.40;99.90;;;;;;5095519;28;20076;-73
2022/09/27 00:36:20;;;;;;;36.55;19.23;;;28.50;99.90;;;;;;5095327;28;20063;-70
2022/09/27 00:38:46;;;;;;;33.40;18.10;;;28.50;99.90;;;;;;5095220;28;20028;-72
2022/09/27 00:41:16;;;;;;;30.40;17.45;;;28.60;99.90;;;;;;5095323;28;20019;-72
2022/09/27 00:43:48;;;;;;;41.33;19.75;;;28.70;99.90;;;;;;5095260;28;20028;-72
2022/09/27 00:46:26;;;;;;;33.63;17.75;;;28.70;99.90;;;;;;5094894;28;20371;-72
2022/09/27 00:49:05;;;;;;;34.50;18.48;;;28.60;99.90;;;;;;5090163;28;20032;-72
2022/09/27 00:51:35;;;;;;;33.38;19.70;;;28.50;99.90;;;;;;5086588;28;20020;-73
2022/09/27 00:54:03;;;;;;;30.52;17.83;;;28.50;99.90;;;;;;5094998;28;20541;-72
2022/09/27 00:56:31;;;;;;;31.10;16.65;;;28.50;99.90;;;;;;5094954;28;20498;-71
2022/09/27 00:59:20;;;;;;;35.45;18.42;;;28.60;99.90;;;;;;5094804;28;20226;-70
2022/09/27 01:01:48;;;;;;;42.40;17.70;;;28.70;99.90;;;;;;4992751;28;20472;-74
2022/09/27 01:04:21;;;;;;;46.17;20.45;;;28.70;99.90;;;;;;5002332;28;20096;-72
2022/09/27 01:06:48;;;;;;;42.50;21.90;;;28.70;99.90;;;;;;5000930;28;20029;-72
2022/09/27 01:09:14;;;;;;;44.70;21.65;;;28.60;99.90;;;;;;4984217;28;20058;-72
2022/09/27 01:12:21;;;;;;;37.83;21.05;;;28.80;99.90;;;;;;4973129;28;20058;-71
2022/09/27 01:14:56;;;;;;;42.45;21.15;;;29.00;99.90;;;;;;4973737;28;20402;-72
2022/09/27 01:17:54;;;;;;;42.47;21.73;;;29.10;99.90;;;;;;4973322;28;20071;-72
2022/09/27 01:20:39;;;;;;;43.40;22.05;;;29.10;99.90;;;;;;4973625;28;20023;-72
2022/09/27 01:23:39;;;;;;;47.83;22.02;;;29.10;99.90;;;;;;4978375;28;20105;-72
2022/09/27 01:26:32;;;;;;;34.47;19.85;;;29.30;99.90;;;;;;4975124;28;20113;-70
2022/09/27 01:29:20;;;;;;;39.72;20.58;;;29.50;99.90;;;;;;4992814;28;20093;-71
2022/09/27 01:31:50;;;;;;;37.08;17.25;;;29.60;99.90;;;;;;5018645;28;20482;-71
2022/09/27 01:34:38;;;;;;;52.78;30.00;;;29.80;99.90;;;;;;5076407;28;20066;-71
2022/09/27 01:37:13;;;;;;;38.65;19.15;;;29.80;99.90;;;;;;5073839;28;20028;-72
2022/09/27 01:39:53;;;;;;;53.13;29.27;;;30.00;99.90;;;;;;5073902;28;20020;-74
2022/09/27 01:42:23;;;;;;;42.47;21.55;;;30.00;99.90;;;;;;5073882;28;20435;-71
2022/09/27 01:45:05;;;;;;;35.95;16.77;;;29.90;99.90;;;;;;5073950;28;20033;-72
2022/09/27 01:47:41;;;;;;;36.22;19.10;;;30.00;99.90;;;;;;5073870;28;20032;-70
2022/09/27 01:50:15;;;;;;;44.00;21.85;;;30.20;99.90;;;;;;5072776;28;20470;-72
2022/09/27 01:52:58;;;;;;;34.05;19.02;;;30.20;99.90;;;;;;5073537;28;20081;-70
2022/09/27 01:55:31;;;;;;;35.35;16.70;;;30.20;99.90;;;;;;5073765;28;20031;-70
2022/09/27 01:58:05;;;;;;;46.30;22.13;;;30.30;99.90;;;;;;5073896;28;20426;-71
2022/09/27 02:00:33;;;;;;;36.88;17.92;;;30.30;99.90;;;;;;5079893;28;20020;-69
2022/09/27 02:03:06;;;;;;;38.15;18.42;;;30.40;99.90;;;;;;5091314;28;20458;-72
2022/09/27 02:05:41;;;;;;;52.15;22.42;;;30.40;99.90;;;;;;5082145;28;20021;-72
2022/09/27 02:08:20;;;;;;;30.08;15.18;;;30.40;99.90;;;;;;5077108;28;20051;-70
2022/09/27 02:10:50;;;;;;;27.10;13.60;;;30.50;99.90;;;;;;5093742;28;20023;-68
2022/09/27 02:13:23;;;;;;;30.20;13.43;;;30.60;99.90;;;;;;5093773;28;20439;-71
2022/09/27 02:15:49;;;;;;;20.35;11.07;;;30.70;99.90;;;;;;5093736;28;20016;-69
2022/09/27 02:18:24;;;;;;;35.20;12.10;;;30.90;99.90;;;;;;5093640;28;20069;-68
2022/09/27 02:20:56;;;;;;;27.05;13.85;;;30.90;99.90;;;;;;5093437;28;20390;-66
2022/09/27 02:23:25;;;;;;;24.25;12.85;;;30.90;99.90;;;;;;5093398;28;20020;-66
2022/09/27 02:25:53;;;;;;;27.98;12.18;;;31.00;99.90;;;;;;5093425;28;20028;-67
2022/09/27 02:28:21;;;;;;;31.13;11.50;;;31.10;99.90;;;;;;5093573;28;20025;-67
2022/09/27 02:30:47;;;;;;;20.10;10.13;;;31.00;99.90;;;;;;5093438;28;20046;-68
2022/09/27 02:33:14;;;;;;;28.13;13.38;;;31.00;99.90;;;;;;5093925;28;20020;-68
2022/09/27 02:35:41;;;;;;;33.45;15.63;;;31.10;99.90;;;;;;5093626;28;20016;-68
2022/09/27 02:38:07;;;;;;;29.23;13.27;;;31.00;99.90;;;;;;5093936;28;20466;-67
2022/09/27 02:40:41;;;;;;;27.80;13.05;;;31.20;99.90;;;;;;5093844;28;20094;-69
2022/09/27 02:43:07;;;;;;;31.25;15.30;;;31.30;99.90;;;;;;5093779;28;20032;-69
2022/09/27 02:45:57;;;;;;;33.63;16.52;;;31.20;99.90;;;;;;5082518;28;20463;-69
2022/09/27 02:48:44;;;;;;;37.50;17.42;;;31.30;99.90;;;;;;5073239;28;20029;-68
2022/09/27 02:51:19;;;;;;;41.53;21.77;;;31.40;99.90;;;;;;5003442;28;20038;-69
2022/09/27 02:54:20;;;;;;;34.97;17.20;;;31.40;99.90;;;;;;4992007;28;20113;-70
2022/09/27 02:56:48;;;;;;;24.55;14.95;;;31.50;99.90;;;;;;4953282;29;20123;-69
2022/09/27 02:59:34;;;;;;;29.33;15.40;;;31.50;99.90;;;;;;4957095;28;20121;-68
2022/09/27 03:02:10;;;;;;;26.85;15.27;;;31.50;99.90;;;;;;4978425;28;20044;-70
2022/09/27 03:04:43;;;;;;;28.80;15.15;;;31.50;99.90;;;;;;4991736;28;20043;-70
2022/09/27 03:07:12;;;;;;;30.10;15.68;;;31.70;99.90;;;;;;4991710;28;20030;-69
2022/09/27 03:09:44;;;;;;;28.10;14.05;;;31.70;99.90;;;;;;4992289;28;20026;-68
2022/09/27 03:12:11;;;;;;;31.27;13.75;;;31.90;99.90;;;;;;4991827;28;20031;-69
2022/09/27 03:14:38;;;;;;;23.80;14.63;;;31.90;99.90;;;;;;4991363;28;20086;-69
2022/09/27 03:17:05;;;;;;;29.35;13.18;;;32.00;99.90;;;;;;4991422;28;20039;-70
2022/09/27 03:19:31;;;;;;;23.08;13.10;;;31.90;99.90;;;;;;4991653;28;20030;-68
2022/09/27 03:21:58;;;;;;;25.25;13.48;;;32.00;99.90;;;;;;5002458;28;20042;-69
2022/09/27 03:24:24;;;;;;;25.65;12.75;;;32.10;99.90;;;;;;5010987;28;20042;-68
2022/09/27 03:26:51;;;;;;;27.92;12.48;;;32.10;99.90;;;;;;5011045;28;20112;-69
2022/09/27 03:29:18;;;;;;;18.98;11.65;;;32.10;99.90;;;;;;5011033;28;20497;-69
2022/09/27 03:31:44;;;;;;;17.85;11.98;;;32.20;99.90;;;;;;5011157;28;20165;-68
2022/09/27 03:34:11;;;;;;;21.42;12.27;;;32.40;98.90;;;;;;5012165;28;20030;-68
2022/09/27 03:36:37;;;;;;;20.23;12.68;;;32.30;98.20;;;;;;5014763;28;20036;-68
2022/09/27 03:39:04;;;;;;;18.80;12.52;;;32.30;97.90;;;;;;5014787;28;20414;-67
2022/09/27 03:41:31;;;;;;;18.90;11.85;;;32.40;99.10;;;;;;5015269;28;20037;-68
2022/09/27 03:43:58;;;;;;;24.25;13.55;;;32.50;99.10;;;;;;5014441;28;20037;-69
2022/09/27 03:46:26;;;;;;;21.52;13.82;;;32.50;97.80;;;;;;5014189;28;20050;-68
2022/09/27 03:48:53;;;;;;;32.63;17.88;;;32.70;95.30;;;;;;5014533;28;20440;-68
2022/09/27 03:51:19;;;;;;;20.58;11.65;;;32.70;95.20;;;;;;5014220;28;20080;-68
2022/09/27 03:53:46;;;;;;;19.75;12.30;;;32.70;93.80;;;;;;5083923;28;20375;-68
2022/09/27 03:56:13;;;;;;;20.73;12.27;;;32.70;94.40;;;;;;5075971;28;20482;-68
2022/09/27 03:58:39;;;;;;;21.50;12.27;;;32.70;95.50;;;;;;5075750;28;20028;-68
2022/09/27 04:01:06;;;;;;;20.30;12.00;;;32.70;95.40;;;;;;5075934;28;20044;-69
2022/09/27 04:03:34;;;;;;;27.38;11.38;;;32.70;95.00;;;;;;5087427;28;20054;-67
2022/09/27 04:06:02;;;;;;;22.10;11.45;;;32.70;95.30;;;;;;5095882;28;20073;-67
2022/09/27 04:08:29;;;;;;;24.25;11.88;;;32.90;93.90;;;;;;5076520;28;20025;-67
2022/09/27 04:10:56;;;;;;;19.50;12.32;;;33.00;94.20;;;;;;5075761;28;20043;-68
2022/09/27 04:13:23;;;;;;;27.48;14.35;;;33.10;94.20;;;;;;5075501;28;20016;-68
2022/09/27 04:15:49;;;;;;;26.23;13.20;;;33.20;94.70;;;;;;5075557;28;20029;-69
2022/09/27 04:18:16;;;;;;;20.33;12.85;;;33.20;94.70;;;;;;5075620;28;20414;-68
2022/09/27 04:20:42;;;;;;;26.42;14.18;;;33.40;93.90;;;;;;5075427;28;20017;-68
2022/09/27 04:23:09;;;;;;;29.27;14.25;;;33.40;92.80;;;;;;5075774;28;20020;-68
2022/09/27 04:25:36;;;;;;;20.55;12.48;;;33.50;93.30;;;;;;5095361;28;20022;-67
2022/09/27 04:28:04;;;;;;;23.02;11.75;;;33.50;91.70;;;;;;5095493;28;20020;-68
2022/09/27 04:30:33;;;;;;;23.33;11.50;;;33.70;91.40;;;;;;5088600;28;20025;-70
2022/09/27 04:33:00;;;;;;;23.13;11.60;;;33.60;90.70;;;;;;5082530;28;20029;-68
2022/09/27 04:38:13;;;;;;;20.67;11.10;;;33.60;90.90;;;;;;5104191;28;20395;-69
2022/09/27 04:40:40;;;;;;;18.38;11.45;;;33.60;90.40;;;;;;5103352;28;20061;-71
2022/09/27 04:43:08;;;;;;;24.55;12.57;;;33.60;90.00;;;;;;5104580;28;20031;-70
2022/09/27 04:45:35;;;;;;;20.75;12.10;;;33.50;91.00;;;;;;5095341;28;20036;-69
2022/09/27 04:48:02;;;;;;;19.35;12.45;;;33.50;90.80;;;;;;5094260;28;20117;-71
2022/09/27 04:50:29;;;;;;;18.48;11.98;;;33.60;90.00;;;;;;5096300;28;20020;-67
2022/09/27 04:52:55;;;;;;;20.92;13.57;;;33.50;90.50;;;;;;5096061;28;20133;-69
2022/09/27 04:55:22;;;;;;;17.50;12.38;;;33.60;89.80;;;;;;5093924;28;20013;-68
2022/09/27 04:57:49;;;;;;;19.70;13.10;;;33.70;86.10;;;;;;5098061;28;20023;-69
2022/09/27 05:00:16;;;;;;;19.15;11.38;;;33.80;87.80;;;;;;5103506;28;20111;-69
2022/09/27 05:02:44;;;;;;;24.40;13.73;;;33.80;90.30;;;;;;5104982;28;20084;-70
2022/09/27 05:05:11;;;;;;;22.27;13.45;;;33.70;88.60;;;;;;5105357;28;20549;-70
2022/09/27 05:07:38;;;;;;;23.55;13.85;;;33.60;88.60;;;;;;5103270;28;20034;-70
2022/09/27 05:10:06;;;;;;;24.15;12.02;;;33.50;89.50;;;;;;5104448;28;20030;-70
2022/09/27 05:12:32;;;;;;;17.50;12.10;;;33.40;89.10;;;;;;5098185;28;20520;-68
2022/09/27 05:14:59;;;;;;;26.65;12.40;;;33.30;86.80;;;;;;5074317;28;20074;-68
2022/09/27 05:17:26;;;;;;;22.75;12.82;;;33.30;86.90;;;;;;5084706;28;20032;-68
2022/09/27 05:19:52;;;;;;;29.80;12.98;;;33.40;90.00;;;;;;5093968;28;20103;-67
2022/09/27 05:22:21;;;;;;;16.70;10.15;;;33.60;87.60;;;;;;5112787;28;20051;-69
2022/09/27 05:24:48;;;;;;;19.85;12.05;;;33.90;84.80;;;;;;5114888;28;20020;-67
2022/09/27 05:27:19;;;;;;;19.92;12.10;;;33.90;83.90;;;;;;5114581;28;20016;-68
2022/09/27 05:29:46;;;;;;;17.40;11.37;;;33.80;83.50;;;;;;5114705;28;20438;-67
2022/09/27 05:32:14;;;;;;;19.20;11.18;;;33.80;85.50;;;;;;5114828;28;20020;-70
2022/09/27 05:34:40;;;;;;;15.25;11.43;;;33.90;85.60;;;;;;5114723;28;20024;-66
2022/09/27 05:37:07;;;;;;;22.27;13.63;;;34.00;84.80;;;;;;5108132;28;20103;-66
2022/09/27 05:39:34;;;;;;;23.90;13.85;;;34.00;83.10;;;;;;5098461;28;20031;-67
2022/09/27 05:42:03;;;;;;;16.55;12.40;;;33.80;81.50;;;;;;5103760;28;20023;-67
2022/09/27 05:44:30;;;;;;;19.25;12.88;;;33.60;84.40;;;;;;5102807;28;20039;-66
2022/09/27 05:46:59;;;;;;;18.98;12.27;;;33.80;84.20;;;;;;5104357;28;20035;-68
2022/09/27 05:49:26;;;;;;;18.08;11.68;;;33.80;84.10;;;;;;5104274;28;20027;-65
2022/09/27 05:51:53;;;;;;;18.35;10.80;;;33.90;83.40;;;;;;5102495;28;20021;-67
2022/09/27 05:54:19;;;;;;;15.43;11.85;;;34.20;83.80;;;;;;5101312;28;20031;-67
2022/09/27 05:56:46;;;;;;;20.88;12.15;;;34.20;84.50;;;;;;5094427;28;20063;-67
2022/09/27 05:59:12;;;;;;;23.17;13.05;;;34.30;84.20;;;;;;5095034;28;20023;-66
2022/09/27 06:01:39;;;;;;;20.02;13.15;;;34.20;80.90;;;;;;5095123;28;20486;-67
2022/09/27 06:04:05;;;;;;;26.73;14.93;;;34.10;81.80;;;;;;5094441;28;20036;-68
2022/09/27 06:06:36;;;;;;;24.83;14.93;;;34.10;80.30;;;;;;5087372;28;20463;-67
2022/09/27 06:09:02;;;;;;;18.35;12.82;;;34.20;79.80;;;;;;5075556;28;20463;-67
2022/09/27 06:11:29;;;;;;;16.00;13.07;;;34.20;80.40;;;;;;5084440;28;20474;-68
2022/09/27 06:13:56;;;;;;;21.13;14.07;;;34.10;80.20;;;;;;5091750;28;20380;-69
2022/09/27 06:16:22;;;;;;;19.55;12.25;;;34.00;80.90;;;;;;5091116;28;20027;-69
2022/09/27 06:18:49;;;;;;;20.20;12.77;;;33.90;80.50;;;;;;5091640;28;20024;-70
2022/09/27 06:21:16;;;;;;;23.10;13.68;;;33.90;81.10;;;;;;5091888;28;20099;-69
2022/09/27 06:23:42;;;;;;;19.05;13.27;;;33.90;80.30;;;;;;5091926;28;20043;-70
2022/09/27 06:26:09;;;;;;;19.67;13.52;;;34.00;78.80;;;;;;5091609;28;20111;-71
2022/09/27 06:28:36;;;;;;;22.13;11.77;;;34.10;78.70;;;;;;5092590;28;20439;-69
2022/09/27 06:31:06;;;;;;;17.83;11.50;;;34.20;79.80;;;;;;5093322;28;20020;-68
2022/09/27 06:33:34;;;;;;;18.75;11.57;;;34.20;79.80;;;;;;5093009;28;20020;-69
2022/09/27 06:36:04;;;;;;;18.05;11.52;;;34.30;77.50;;;;;;5092616;28;20020;-70
2022/09/27 06:38:31;;;;;;;26.80;13.63;;;34.20;78.70;;;;;;5093324;28;20028;-69
2022/09/27 06:41:02;;;;;;;22.85;13.48;;;34.30;79.10;;;;;;5092995;28;20034;-69
2022/09/27 06:43:30;;;;;;;19.55;13.15;;;34.30;77.70;;;;;;5086725;28;20020;-69
2022/09/27 06:46:04;;;;;;;20.70;12.48;;;34.10;78.20;;;;;;5078615;28;20068;-70
2022/09/27 06:48:32;;;;;;;22.67;16.58;;;33.90;77.00;;;;;;5072996;28;20029;-70
2022/09/27 06:50:59;;;;;;;17.95;12.32;;;33.90;75.40;;;;;;5072976;28;20017;-69
2022/09/27 06:53:27;;;;;;;21.38;12.07;;;33.90;77.80;;;;;;5072706;28;20021;-67
2022/09/27 06:55:58;;;;;;;17.85;11.40;;;34.00;79.80;;;;;;5072788;28;20095;-67
2022/09/27 07:01:13;;;;;;;23.90;16.15;;;34.10;78.70;;;;;;5077561;28;20036;-69
2022/09/27 07:03:42;;;;;;;18.27;12.75;;;34.20;77.50;;;;;;5078282;28;20017;-70
2022/09/27 07:06:20;;;;;;;15.85;12.05;;;34.30;78.00;;;;;;5072479;28;20036;-70
2022/09/27 07:08:51;;;;;;;24.35;12.57;;;34.30;77.70;;;;;;5073340;28;20021;-70
2022/09/27 07:11:17;;;;;;;18.52;11.35;;;34.30;75.50;;;;;;5076607;28;20023;-67
2022/09/27 07:13:44;;;;;;;18.02;11.50;;;34.20;74.40;;;;;;5079113;28;20020;-67
2022/09/27 07:16:12;;;;;;;18.13;12.05;;;34.30;76.20;;;;;;5085547;28;20032;-68
2022/09/27 07:18:39;;;;;;;19.95;13.10;;;34.30;77.60;;;;;;5076345;28;20192;-67
2022/09/27 07:21:07;;;;;;;17.20;11.55;;;34.40;75.40;;;;;;5076715;28;20470;-70
2022/09/27 07:23:35;;;;;;;21.40;11.82;;;34.50;76.40;;;;;;5076410;28;20029;-67
2022/09/27 07:26:05;;;;;;;13.00;10.93;;;34.60;75.50;;;;;;5076142;28;20028;-66
2022/09/27 07:28:33;;;;;;;17.45;11.00;;;34.70;72.10;;;;;;5076319;28;20382;-67
2022/09/27 07:31:01;;;;;;;16.73;11.93;;;34.70;73.70;;;;;;5076375;28;20106;-67
2022/09/27 07:33:27;;;;;;;130.07;105.85;;;34.80;73.70;;;;;;5076071;28;20024;-67
2022/09/27 07:35:54;;;;;;;43.65;32.17;;;34.90;74.10;;;;;;5076399;28;20378;-68
2022/09/27 07:38:21;;;;;;;22.20;14.77;;;34.90;73.50;;;;;;5076143;28;20039;-66
2022/09/27 07:40:47;;;;;;;21.55;13.90;;;35.00;74.60;;;;;;5076039;28;20021;-67
2022/09/27 07:43:14;;;;;;;24.83;14.45;;;35.00;75.00;;;;;;5076447;28;20416;-68
2022/09/27 07:45:41;;;;;;;22.33;14.30;;;35.00;74.10;;;;;;5086984;28;20036;-66
2022/09/27 07:48:11;;;;;;;17.85;14.25;;;35.00;74.10;;;;;;5075733;28;20040;-66
2022/09/27 07:50:38;;;;;;;25.13;13.50;;;35.00;73.60;;;;;;5075618;28;20035;-66
2022/09/27 07:53:05;;;;;;;20.88;13.73;;;34.90;73.60;;;;;;5075982;28;20475;-66
2022/09/27 07:55:32;;;;;;;20.58;14.10;;;34.80;72.60;;;;;;5075624;28;20074;-67
2022/09/27 07:58:10;;;;;;;19.95;14.40;;;34.60;75.00;;;;;;5075697;28;20089;-66
2022/09/27 08:00:39;;;;;;;20.88;14.52;;;34.60;76.10;;;;;;5075728;28;20059;-66
2022/09/27 08:03:14;;;;;;;20.73;14.60;;;34.60;76.10;;;;;;5075987;28;20491;-67
2022/09/27 08:05:44;;;;;;;33.65;15.13;;;34.60;75.60;;;;;;5075564;28;20029;-67
2022/09/27 08:08:11;;;;;;;22.42;15.15;;;34.50;75.50;;;;;;5075483;28;20032;-66
2022/09/27 08:10:42;;;;;;;19.42;14.15;;;34.50;73.50;;;;;;5075661;28;20013;-67
2022/09/27 08:13:09;;;;;;;;;;;34.30;73.10;;;;;;5076207;28;20486;-67
2022/09/27 08:15:37;;;;;;;27.90;17.67;;;34.30;74.40;;;;;;5075295;28;19969;-66
2022/09/27 08:18:06;;;;;;;26.63;16.05;;;34.20;77.40;;;;;;5075442;28;20110;-66
2022/09/27 08:20:32;;;;;;;26.83;18.65;;;34.10;77.80;;;;;;5075245;28;20028;-67
2022/09/27 08:22:59;;;;;;;63.40;43.70;;;34.10;78.70;;;;;;5075190;28;20033;-67
2022/09/27 08:25:27;;;;;;;47.20;34.08;;;34.00;79.80;;;;;;5075390;28;20024;-66
2022/09/27 08:27:59;;;;;;;60.45;42.28;;;34.00;80.10;;;;;;5075153;28;20493;-67
2022/09/27 08:30:28;;;;;;;29.50;19.30;;;33.90;80.70;;;;;;5075159;28;20090;-65
2022/09/27 08:32:58;;;;;;;33.22;25.52;;;33.90;79.10;;;;;;5078045;28;20028;-66
2022/09/27 08:35:27;;;;;;;40.70;25.98;;;33.90;79.00;;;;;;5083792;28;20024;-65
2022/09/27 08:37:56;;;;;;;44.10;26.42;;;33.90;77.80;;;;;;5075061;28;20479;-66
2022/09/27 08:40:26;;;;;;;30.98;21.33;;;33.80;78.50;;;;;;5075029;28;20029;-66
2022/09/27 08:43:00;;;;;;;88.80;53.95;;;33.90;77.50;;;;;;5074767;28;20060;-66
2022/09/27 08:45:30;;;;;;;521.95;351.48;;;33.90;78.20;;;;;;5074827;28;20124;-67
2022/09/27 08:48:02;;;;;;;293.75;197.90;;;33.90;79.20;;;;;;5075018;28;20124;-65
2022/09/27 08:50:30;;;;;;;571.28;373.05;;;33.90;79.40;;;;;;5075347;28;20139;-66
2022/09/27 08:52:58;;;;;;;101.90;60.95;;;33.90;77.70;;;;;;5082323;28;20419;-66
2022/09/27 08:55:56;;;;;;;168.43;95.65;;;34.00;78.10;;;;;;5083552;28;20494;-66
2022/09/27 08:58:40;;;;;;;105.05;61.03;;;34.10;77.50;;;;;;5074673;28;20449;-66
2022/09/27 09:01:14;;;;;;;135.82;61.38;;;34.20;77.90;;;;;;5083494;28;20074;-67
2022/09/27 09:03:54;;;;;;;36.42;23.88;;;34.30;77.10;;;;;;5094498;28;20032;-68
2022/09/27 09:06:27;;;;;;;101.18;47.78;;;34.20;75.90;;;;;;5074704;28;20115;-69
2022/09/27 09:09:05;;;;;;;146.77;66.03;;;34.20;78.40;;;;;;5089045;28;20012;-67
2022/09/27 09:14:41;;;;;;;74.70;36.38;;;34.30;75.50;;;;;;5100859;28;20470;-67
2022/09/27 09:17:25;;;;;;;89.47;42.85;;;34.20;75.50;;;;;;5104219;28;20492;-67
2022/09/27 09:20:03;;;;;;;61.03;37.33;;;34.20;74.60;;;;;;5101223;28;20035;-68
2022/09/27 09:22:38;;;;;;;40.35;24.70;;;34.20;74.70;;;;;;5094429;28;20028;-68
2022/09/27 09:25:07;;;;;;;53.47;29.92;;;34.10;74.20;;;;;;5097203;28;20102;-69
2022/09/27 09:27:34;;;;;;;43.58;26.67;;;34.10;74.10;;;;;;5103068;28;20020;-67
2022/09/27 09:30:19;;;;;;;95.82;48.10;;;34.10;73.40;;;;;;5103635;28;20035;-67
2022/09/27 09:32:49;;;;;;;54.22;32.45;;;34.10;73.80;;;;;;5099086;28;20028;-69
2022/09/27 09:35:21;;;;;;;63.63;33.67;;;34.00;75.20;;;;;;5102767;28;20015;-68
2022/09/27 09:37:49;;;;;;;;;;;34.10;75.60;;;;;;5100301;28;20077;-69
2022/09/27 09:40:37;;;;;;;56.20;31.52;;;34.10;76.30;;;;;;5101269;28;19908;-69
2022/09/27 09:43:09;;;;;;;112.60;63.78;;;34.00;78.00;;;;;;5099104;28;20458;-68
2022/09/27 09:45:38;;;;;;;;;;;34.00;77.50;;;;;;5102209;28;20030;-69
2022/09/27 09:48:14;;;;;;;73.30;41.33;;;34.00;77.20;;;;;;5102544;28;19926;-68
2022/09/27 09:50:58;;;;;;;66.68;36.17;;;33.90;78.90;;;;;;5098177;28;20011;-68
2022/09/27 09:53:45;;;;;;;51.15;31.45;;;33.90;77.90;;;;;;5100924;28;20024;-68
2022/09/27 09:56:18;;;;;;;45.08;28.17;;;33.90;79.10;;;;;;5103477;28;20032;-68
2022/09/27 09:59:02;;;;;;;55.00;32.33;;;33.80;80.20;;;;;;5103145;28;20107;-67
2022/09/27 10:01:40;;;;;;;51.03;31.48;;;33.80;80.30;;;;;;5103134;28;20020;-69
2022/09/27 10:04:11;;;;;;;53.10;31.95;;;33.80;80.00;;;;;;5103563;28;20603;-65
2022/09/27 10:06:38;;;;;;;37.47;26.52;;;33.70;79.70;;;;;;5102430;28;20363;-65
2022/09/27 10:09:04;;;;;;;47.53;31.90;;;33.70;80.80;;;;;;5101101;28;20061;-70
2022/09/27 10:11:40;;;;;;;38.95;30.17;;;33.60;80.80;;;;;;5110403;28;20019;-70
2022/09/27 10:14:11;;;;;;;46.53;32.90;;;33.60;81.80;;;;;;5097923;28;20020;-70
2022/09/27 10:16:42;;;;;;;56.42;38.45;;;33.60;80.30;;;;;;5097443;28;20058;-69
2022/09/27 10:19:10;;;;;;;42.15;28.38;;;33.60;80.40;;;;;;5086083;28;20032;-70
2022/09/27 10:21:44;;;;;;;38.10;26.35;;;33.60;80.10;;;;;;5088134;28;20028;-70
2022/09/27 10:24:13;;;;;;;51.22;31.88;;;33.50;79.80;;;;;;5100643;28;20027;-72
2022/09/27 10:26:43;;;;;;;49.80;29.42;;;33.50;80.10;;;;;;5098568;28;20032;-70
2022/09/27 10:29:19;;;;;;;46.03;29.58;;;33.40;79.00;;;;;;5103209;28;20024;-69
2022/09/27 10:31:49;;;;;;;44.92;28.35;;;33.30;78.70;;;;;;5102689;28;20427;-71
2022/09/27 10:34:25;;;;;;;41.97;30.40;;;33.30;80.50;;;;;;5101466;28;20027;-71
2022/09/27 10:37:11;;;;;;;39.22;25.77;;;33.20;78.40;;;;;;5100849;28;20077;-69
2022/09/27 10:39:41;;;;;;;50.58;31.27;;;33.20;80.70;;;;;;5008988;28;20034;-70
2022/09/27 10:42:37;;;;;;;52.08;33.92;;;33.20;81.20;;;;;;5007914;28;20041;-70
2022/09/27 10:45:26;;;;;;;34.03;24.70;;;33.10;82.10;;;;;;5009018;28;20466;-70
2022/09/27 10:47:53;;;;;;;50.80;28.02;;;33.00;82.80;;;;;;5008590;28;20041;-70
2022/09/27 10:50:30;;;;;;;40.42;26.65;;;33.00;81.80;;;;;;5009691;28;20030;-67
2022/09/27 10:53:17;;;;;;;39.30;24.45;;;32.80;83.70;;;;;;5009723;28;20033;-67
2022/09/27 10:55:50;;;;;;;47.63;32.10;;;32.80;84.10;;;;;;5009727;28;20022;-70
2022/09/27 10:58:26;;;;;;;53.60;31.15;;;32.80;85.20;;;;;;5009538;28;20034;-70
2022/09/27 11:01:01;;;;;;;47.17;29.90;;;32.80;85.50;;;;;;5007064;28;20034;-67
2022/09/27 11:03:29;;;;;;;43.22;29.00;;;32.70;86.60;;;;;;5008913;28;20400;-66
2022/09/27 11:05:58;;;;;;;51.08;28.27;;;32.60;86.90;;;;;;5008916;28;20046;-69
2022/09/27 11:08:34;;;;;;;38.53;23.90;;;32.60;86.40;;;;;;5027221;28;20040;-69
2022/09/27 11:11:24;;;;;;;59.75;34.15;;;32.50;87.40;;;;;;5028193;28;20081;-69
2022/09/27 11:14:03;;;;;;;49.53;29.65;;;32.50;88.40;;;;;;5019786;28;20129;-71
2022/09/27 11:17:00;;;;;;;41.13;26.20;;;32.40;86.90;;;;;;5045241;28;20043;-70
2022/09/27 11:19:36;;;;;;;38.58;23.20;;;32.40;89.00;;;;;;5102703;28;20062;-69
2022/09/27 11:22:04;;;;;;;45.75;25.77;;;32.30;87.40;;;;;;5103668;28;20154;-68
2022/09/27 11:25:02;;;;;;;46.75;27.83;;;32.30;87.70;;;;;;5103085;28;20481;-71
2022/09/27 11:27:56;;;;;;;44.40;24.40;;;32.20;88.60;;;;;;5101624;28;20028;-71
2022/09/27 11:30:28;;;;;;;47.88;27.05;;;32.30;88.20;;;;;;5011549;28;20468;-70
2022/09/27 11:33:13;;;;;;;40.55;25.13;;;32.20;89.10;;;;;;5011460;28;20074;-71
2022/09/27 11:36:00;;;;;;;42.97;24.73;;;32.20;89.50;;;;;;5011681;28;20026;-70
2022/09/27 11:38:35;;;;;;;45.83;26.45;;;32.20;89.50;;;;;;5011607;28;20033;-70
2022/09/27 11:41:19;;;;;;;35.47;22.95;;;32.20;90.00;;;;;;5009932;28;20473;-70
2022/09/27 11:43:54;;;;;;;44.40;24.58;;;32.10;89.70;;;;;;4996560;28;20042;-72
2022/09/27 11:46:32;;;;;;;48.17;27.05;;;32.10;90.30;;;;;;5007089;28;20056;-71
2022/09/27 11:49:25;;;;;;;39.13;25.92;;;32.00;90.40;;;;;;5012510;28;20124;-69
2022/09/27 11:51:51;;;;;;;;;;;32.00;90.40;;;;;;5011140;28;20042;-68
2022/09/27 11:54:19;;;;;;;36.08;22.67;;;32.00;90.40;;;;;;5010576;28;20348;-71
2022/09/27 11:57:06;;;;;;;45.05;23.63;;;32.00;90.90;;;;;;5007584;28;20052;-70
2022/09/27 12:00:07;;;;;;;40.92;23.80;;;31.90;90.80;;;;;;4997536;28;20038;-72
2022/09/27 12:03:03;;;;;;;41.05;24.83;;;31.90;90.80;;;;;;4994370;28;20041;-70
2022/09/27 12:05:46;;;;;;;41.97;24.90;;;31.80;91.30;;;;;;4996647;28;20102;-69
2022/09/27 12:08:43;;;;;;;39.78;25.02;;;31.80;90.90;;;;;;4995103;28;20524;-70
2022/09/27 12:11:16;;;;;;;38.47;25.27;;;31.80;91.40;;;;;;4994309;28;20031;-69
2022/09/27 12:13:48;;;;;;;48.28;26.63;;;31.80;92.00;;;;;;4994270;28;20520;-65
2022/09/27 12:16:17;;;;;;;52.92;26.85;;;31.70;91.00;;;;;;4994247;28;20034;-66
2022/09/27 12:18:46;;;;;;;42.42;25.80;;;31.60;91.50;;;;;;4994081;28;20058;-67
2022/09/27 12:21:15;;;;;;;36.60;23.13;;;31.60;91.70;;;;;;4994254;28;20026;-66
2022/09/27 12:23:56;;;;;;;46.70;24.88;;;31.60;91.80;;;;;;4994177;28;20470;-69
2022/09/27 12:26:30;;;;;;;36.53;23.07;;;31.60;91.80;;;;;;4994933;28;20034;-69
2022/09/27 12:29:05;;;;;;;37.55;22.73;;;31.50;91.90;;;;;;5003734;28;20123;-68
2022/09/27 12:31:47;;;;;;;34.17;22.40;;;31.40;92.60;;;;;;5014217;28;20026;-69
2022/09/27 12:34:16;;;;;;;33.75;22.25;;;31.40;92.10;;;;;;5089746;28;20032;-67
2022/09/27 12:36:49;;;;;;;49.53;26.42;;;31.40;92.20;;;;;;5095269;28;20032;-68
2022/09/27 12:39:22;;;;;;;42.70;25.88;;;31.40;92.40;;;;;;5095601;28;20024;-69
2022/09/27 12:42:00;;;;;;;38.22;23.75;;;31.40;92.60;;;;;;5095295;28;20028;-71
2022/09/27 12:44:33;;;;;;;36.00;23.77;;;31.30;93.00;;;;;;5095177;28;20024;-72
2022/09/27 12:47:02;;;;;;;34.50;22.50;;;31.30;93.10;;;;;;5094893;28;20565;-69
2022/09/27 12:49:44;;;;;;;30.05;20.15;;;31.20;93.10;;;;;;5095252;28;20020;-70
2022/09/27 12:52:21;;;;;;;26.77;18.20;;;31.20;93.60;;;;;;5095054;28;20016;-67
2022/09/27 12:54:55;;;;;;;35.13;19.95;;;31.10;93.60;;;;;;5095044;28;20082;-67
2022/09/27 12:57:39;;;;;;;35.80;18.83;;;31.10;93.40;;;;;;5094962;28;20460;-65
2022/09/27 13:00:16;;;;;;;23.38;16.85;;;31.00;93.80;;;;;;5100205;28;20051;-66
2022/09/27 13:03:06;;;;;;;28.15;18.20;;;31.00;93.30;;;;;;5102759;28;20020;-67